| time (UTC) | temp F | wind direction | speed MPH | gust MPH | rain 1hr in | rain 24hr in | rain mn in | humidity % | barometer mb |
| 20260506163257 | 45 | 56 | 4.0 | 9.0 | 0.05 | 0.05 | 0.06 | 84 | 1011.9 |
| 20260506162529 | 46 | 86 | 3.0 | 9.0 | 0.04 | 0.04 | 0.04 | 83 | 1011.9 |
| 20260506162307 | 46 | 88 | 3.0 | 8.0 | 0.03 | 0.03 | 0.04 | 81 | 1012.1 |
| 20260506161525 | 47 | 84 | 3.0 | 9.0 | 0.02 | 0.02 | 0.02 | 79 | 1012.1 |
| 20260506161038 | 47 | 123 | 3.0 | 9.0 | 0.02 | 0.02 | 0.02 | 78 | 1012.0 |
| 20260506160525 | 47 | 93 | 1.0 | 7.0 | 0.02 | 0.02 | 0.02 | 77 | 1012.0 |
| 20260506160039 | 47 | 65 | 1.0 | 6.0 | 0.02 | 0.02 | 0.02 | 77 | 1011.8 |
| 20260506155525 | 48 | 65 | 1.0 | 9.0 | 0.01 | 0.01 | 0.02 | 74 | 1011.9 |
| 20260506155025 | 48 | 78 | 3.0 | 9.0 | 0.01 | 0.01 | 0.01 | 73 | 1011.7 |
| 20260506155011 | 49 | 61 | 3.0 | 11.0 | 0.00 | 0.00 | 0.01 | 71 | 1011.5 |
| 20260506154021 | 49 | 57 | 2.0 | 11.0 | 0.00 | 0.00 | 0.00 | 69 | 1011.1 |
| 20260506153745 | 49 | 98 | 2.0 | 8.0 | 0.00 | 0.00 | 0.00 | 68 | 1011.1 |
| 20260506153020 | 50 | 88 | 3.0 | 8.0 | 0.00 | 0.00 | 0.00 | 66 | 1011.2 |
| 20260506152521 | 51 | 76 | 4.0 | 9.0 | 0.00 | 0.00 | 0.00 | 61 | 1011.4 |
| 20260506152022 | 51 | 81 | 5.0 | 13.0 | 0.00 | 0.00 | 0.00 | 63 | 1011.4 |
| 20260506151521 | 51 | 49 | 4.0 | 13.0 | 0.00 | 0.00 | 0.00 | 59 | 1011.3 |
| 20260506151021 | 51 | 94 | 5.0 | 17.0 | 0.00 | 0.00 | 0.00 | 60 | 1011.3 |
| 20260506150521 | 52 | 186 | 5.0 | 17.0 | 0.00 | 0.00 | 0.00 | 54 | 1011.2 |
| 20260506150021 | 53 | 59 | 3.0 | 13.0 | 0.00 | 0.00 | 0.00 | 51 | 1011.0 |
| 20260506145518 | 54 | 131 | 1.0 | 4.0 | 0.00 | 0.00 | 0.00 | 49 | 1010.9 |
| 20260506145014 | 54 | 92 | 1.0 | 5.0 | 0.00 | 0.00 | 0.00 | 46 | 1010.6 |
| 20260506144515 | 54 | 96 | 1.0 | 5.0 | 0.00 | 0.00 | 0.00 | 47 | 1010.5 |
| 20260506144016 | 54 | 77 | 1.0 | 8.0 | 0.00 | 0.00 | 0.00 | 46 | 1010.3 |
| 20260506143514 | 54 | 88 | 2.0 | 8.0 | 0.00 | 0.00 | 0.00 | 45 | 1010.2 |
| 20260506143239 | 54 | 89 | 2.0 | 6.0 | 0.00 | 0.00 | 0.00 | 45 | 1010.4 |
| 20260506142740 | 54 | 90 | 2.0 | 6.0 | 0.00 | 0.00 | 0.00 | 45 | 1010.4 |
| 20260506142016 | 55 | 74 | 2.0 | 5.0 | 0.00 | 0.00 | 0.00 | 46 | 1010.6 |
| 20260506141514 | 55 | 74 | 2.0 | 8.0 | 0.00 | 0.00 | 0.00 | 44 | 1010.7 |
| 20260506141015 | 55 | 79 | 1.0 | 8.0 | 0.00 | 0.00 | 0.00 | 44 | 1010.8 |
| 20260506140510 | 55 | 78 | 2.0 | 8.0 | 0.00 | 0.00 | 0.00 | 46 | 1010.7 |
| 20260506140010 | 55 | 73 | 2.0 | 9.0 | 0.00 | 0.00 | 0.00 | 43 | 1010.6 |
| 20260506135509 | 55 | 93 | 2.0 | 9.0 | 0.00 | 0.00 | 0.00 | 46 | 1010.8 |
| 20260506135009 | 55 | 76 | 2.0 | 7.0 | 0.00 | 0.00 | 0.00 | 43 | 1010.9 |
| 20260506134510 | 55 | 84 | 2.0 | 7.0 | 0.00 | 0.00 | 0.00 | 43 | 1010.9 |
| 20260506134006 | 55 | 98 | 2.0 | 7.0 | 0.00 | 0.00 | 0.00 | 44 | 1011.1 |
| 20260506133507 | 55 | 67 | 1.0 | 7.0 | 0.00 | 0.00 | 0.00 | 44 | 1011.1 |
| 20260506133006 | 55 | 78 | 1.0 | 7.0 | 0.00 | 0.00 | 0.00 | 43 | 1011.2 |
| 20260506132818 | 55 | 36 | 1.0 | 6.0 | 0.00 | 0.00 | 0.00 | 44 | 1011.0 |
| 20260506132711 | 55 | 61 | 2.0 | 6.0 | 0.00 | 0.00 | 0.00 | 41 | 1011.2 |
| 20260506131506 | 55 | 68 | 2.0 | 8.0 | 0.00 | 0.00 | 0.00 | 43 | 1011.0 |
| 20260506131017 | 56 | 88 | 3.0 | 8.0 | 0.00 | 0.00 | 0.00 | 44 | 1011.3 |
| 20260506130503 | 56 | 74 | 2.0 | 5.0 | 0.00 | 0.00 | 0.00 | 44 | 1011.6 |
| 20260506130003 | 56 | 92 | 2.0 | 6.0 | 0.00 | 0.00 | 0.00 | 44 | 1011.6 |
| 20260506125505 | 56 | 19 | 2.0 | 6.0 | 0.00 | 0.00 | 0.00 | 44 | 1011.8 |
| 20260506125002 | 56 | 49 | 1.0 | 5.0 | 0.00 | 0.00 | 0.00 | 43 | 1011.9 |
| 20260506124503 | 56 | 42 | 2.0 | 7.0 | 0.00 | 0.00 | 0.00 | 42 | 1011.9 |
| 20260506124002 | 56 | 52 | 3.0 | 10.0 | 0.00 | 0.00 | 0.00 | 44 | 1012.0 |
| 20260506123504 | 56 | 82 | 3.0 | 10.0 | 0.00 | 0.00 | 0.00 | 45 | 1012.2 |
| 20260506123002 | 56 | 42 | 2.0 | 8.0 | 0.00 | 0.00 | 0.00 | 46 | 1012.3 |
| 20260506122502 | 56 | 330 | 3.0 | 8.0 | 0.00 | 0.00 | 0.00 | 41 | 1012.4 |
| 20260506122004 | 57 | 340 | 2.0 | 8.0 | 0.00 | 0.00 | 0.00 | 40 | 1012.2 |
| 20260506121504 | 58 | 55 | 2.0 | 7.0 | 0.00 | 0.00 | 0.00 | 43 | 1012.3 |
| 20260506121002 | 58 | 59 | 2.0 | 8.0 | 0.00 | 0.00 | 0.00 | 45 | 1012.3 |
| 20260506120456 | 57 | 336 | 2.0 | 8.0 | 0.00 | 0.00 | 0.00 | 44 | 1012.4 |
| 20260506115956 | 58 | 111 | 3.0 | 10.0 | 0.00 | 0.00 | 0.00 | 42 | 1012.3 |
| 20260506115458 | 57 | 351 | 3.0 | 11.0 | 0.00 | 0.00 | 0.00 | 42 | 1012.3 |
| 20260506115217 | 57 | 61 | 3.0 | 11.0 | 0.00 | 0.00 | 0.00 | 44 | 1012.3 |
| 20260506114458 | 58 | 22 | 3.0 | 6.0 | 0.00 | 0.00 | 0.00 | 50 | 1012.2 |
| 20260506113954 | 58 | 80 | 3.0 | 10.0 | 0.00 | 0.00 | 0.00 | 47 | 1012.3 |
| 20260506113944 | 58 | 5 | 3.0 | 10.0 | 0.00 | 0.00 | 0.00 | 46 | 1012.1 |
| 20260506112952 | 57 | 58 | 2.0 | 8.0 | 0.00 | 0.00 | 0.00 | 43 | 1012.0 |
| 20260506112451 | 58 | 95 | 3.0 | 9.0 | 0.00 | 0.00 | 0.00 | 44 | 1012.2 |
| 20260506111949 | 57 | 65 | 3.0 | 10.0 | 0.00 | 0.00 | 0.00 | 41 | 1012.1 |
| 20260506111449 | 58 | 348 | 3.0 | 10.0 | 0.00 | 0.00 | 0.00 | 48 | 1012.0 |
| 20260506111210 | 57 | 69 | 3.0 | 8.0 | 0.00 | 0.00 | 0.00 | 47 | 1012.1 |
| 20260506110448 | 56 | 59 | 5.0 | 9.0 | 0.00 | 0.00 | 0.00 | 47 | 1012.1 |
| 20260506110441 | 56 | 86 | 5.0 | 13.0 | 0.00 | 0.00 | 0.00 | 45 | 1011.9 |
| 20260506105449 | 57 | 51 | 4.0 | 13.0 | 0.00 | 0.00 | 0.00 | 44 | 1012.0 |
| 20260506104948 | 57 | 57 | 4.0 | 10.0 | 0.00 | 0.00 | 0.00 | 43 | 1011.9 |
| 20260506104449 | 56 | 146 | 3.0 | 10.0 | 0.00 | 0.00 | 0.00 | 46 | 1012.1 |
| 20260506103948 | 57 | 54 | 2.0 | 9.0 | 0.00 | 0.00 | 0.00 | 51 | 1012.0 |
| 20260506103448 | 55 | 327 | 3.0 | 11.0 | 0.00 | 0.00 | 0.00 | 44 | 1012.1 |
| 20260506102950 | 56 | 102 | 5.0 | 11.0 | 0.00 | 0.00 | 0.00 | 46 | 1012.2 |
| 20260506102448 | 56 | 27 | 7.0 | 13.0 | 0.00 | 0.00 | 0.00 | 46 | 1012.0 |
| 20260506102211 | 56 | 331 | 5.0 | 13.0 | 0.00 | 0.00 | 0.00 | 47 | 1012.2 |
| 20260506101450 | 56 | 322 | 3.0 | 10.0 | 0.00 | 0.00 | 0.00 | 43 | 1012.3 |
| 20260506100947 | 56 | 55 | 7.0 | 14.0 | 0.00 | 0.00 | 0.00 | 44 | 1012.4 |
| 20260506100442 | 56 | 15 | 6.0 | 14.0 | 0.00 | 0.00 | 0.00 | 48 | 1012.4 |
| 20260506095942 | 56 | 333 | 4.0 | 10.0 | 0.00 | 0.00 | 0.00 | 48 | 1012.4 |
| 20260506095439 | 55 | 304 | 4.0 | 12.0 | 0.00 | 0.00 | 0.00 | 43 | 1012.4 |
| 20260506095419 | 55 | 77 | 5.0 | 12.0 | 0.00 | 0.00 | 0.00 | 43 | 1012.5 |
| 20260506094437 | 55 | 279 | 5.0 | 15.0 | 0.00 | 0.00 | 0.00 | 44 | 1012.5 |
| 20260506093936 | 54 | 82 | 5.0 | 15.0 | 0.00 | 0.00 | 0.00 | 44 | 1012.6 |
| 20260506093436 | 54 | 337 | 4.0 | 12.0 | 0.00 | 0.00 | 0.00 | 45 | 1012.6 |
| 20260506092936 | 55 | 19 | 4.0 | 12.0 | 0.00 | 0.00 | 0.00 | 46 | 1012.8 |
| 20260506092437 | 55 | 324 | 3.0 | 11.0 | 0.00 | 0.00 | 0.00 | 46 | 1012.8 |
| 20260506091932 | 55 | 330 | 3.0 | 11.0 | 0.00 | 0.00 | 0.00 | 44 | 1012.8 |
| 20260506091432 | 54 | 57 | 3.0 | 11.0 | 0.00 | 0.00 | 0.00 | 44 | 1013.0 |
| 20260506090931 | 54 | 23 | 5.0 | 12.0 | 0.00 | 0.00 | 0.00 | 48 | 1013.0 |
| 20260506090653 | 54 | 9 | 4.0 | 12.0 | 0.00 | 0.00 | 0.00 | 46 | 1013.0 |
| 20260506085931 | 53 | 342 | 3.0 | 10.0 | 0.00 | 0.00 | 0.00 | 48 | 1013.2 |
| 20260506085653 | 53 | 89 | 3.0 | 10.0 | 0.00 | 0.00 | 0.00 | 50 | 1013.0 |
| 20260506084931 | 53 | 321 | 3.0 | 9.0 | 0.00 | 0.00 | 0.00 | 47 | 1013.1 |
| 20260506084432 | 53 | 324 | 3.0 | 9.0 | 0.00 | 0.00 | 0.00 | 49 | 1013.0 |
| 20260506083930 | 53 | 323 | 3.0 | 10.0 | 0.00 | 0.00 | 0.00 | 49 | 1013.1 |
| 20260506083430 | 53 | 355 | 3.0 | 11.0 | 0.00 | 0.00 | 0.00 | 46 | 1013.2 |
| 20260506082942 | 53 | 57 | 2.0 | 11.0 | 0.00 | 0.00 | 0.00 | 48 | 1013.1 |
| 20260506082431 | 53 | 78 | 2.0 | 7.0 | 0.00 | 0.00 | 0.00 | 47 | 1013.1 |
| 20260506081929 | 53 | 81 | 3.0 | 8.0 | 0.00 | 0.00 | 0.00 | 45 | 1013.2 |
| 20260506081430 | 52 | 80 | 2.0 | 8.0 | 0.00 | 0.00 | 0.00 | 45 | 1013.2 |
| 20260506080930 | 52 | 80 | 3.0 | 9.0 | 0.00 | 0.00 | 0.00 | 52 | 1013.2 |
| 20260506080425 | 52 | 325 | 3.0 | 9.0 | 0.00 | 0.00 | 0.00 | 51 | 1013.4 |
| 20260506073417 | 51 | 19 | 3.0 | 10.0 | 0.00 | 0.00 | 0.00 | 54 | 1013.1 |
| 20260506072918 | 50 | 350 | 3.0 | 10.0 | 0.00 | 0.00 | 0.00 | 58 | 1013.2 |
| 20260506072859 | 51 | 326 | 2.0 | 5.0 | 0.00 | 0.00 | 0.00 | 56 | 1013.2 |
| 20260506071919 | 50 | 84 | 3.0 | 8.0 | 0.00 | 0.00 | 0.00 | 54 | 1013.2 |
| 20260506071644 | 49 | 350 | 3.0 | 8.0 | 0.00 | 0.00 | 0.00 | 56 | 1013.1 |
| 20260506070918 | 50 | 66 | 2.0 | 6.0 | 0.00 | 0.00 | 0.00 | 57 | 1013.2 |
| 20260506070419 | 50 | 72 | 2.0 | 6.0 | 0.00 | 0.00 | 0.00 | 54 | 1013.1 |
| 20260506062351 | 47 | 329 | 2.0 | 9.0 | 0.00 | 0.00 | 0.00 | 63 | 1013.0 |
| 20260506062332 | 48 | 327 | 2.0 | 4.0 | 0.00 | 0.00 | 0.00 | 63 | 1012.9 |
| 20260506061611 | 47 | 78 | 2.0 | 7.0 | 0.00 | 0.00 | 0.00 | 61 | 1012.9 |
| 20260506060904 | 48 | 67 | 2.0 | 7.0 | 0.00 | 0.00 | 0.00 | 64 | 1013.0 |
| 20260506060353 | 47 | 5 | 2.0 | 6.0 | 0.00 | 0.00 | 0.00 | 64 | 1013.1 |
| 20260506051341 | 45 | 96 | 1.0 | 4.0 | 0.00 | 0.00 | 0.00 | 73 | 1012.9 |
| 20260506050843 | 45 | 80 | 1.0 | 3.0 | 0.00 | 0.00 | 0.00 | 75 | 1012.8 |
| 20260506050340 | 44 | 75 | 0.0 | 3.0 | 0.00 | 0.00 | 0.00 | 77 | 1012.8 |
| 20260506044840 | 43 | 312 | 0.0 | 1.0 | 0.00 | 0.00 | 0.00 | 83 | 1012.6 |
| 20260506044337 | 42 | 313 | 0.0 | 1.0 | 0.00 | 0.00 | 0.00 | 86 | 1012.6 |
| 20260506043838 | 41 | 313 | 0.0 | 1.0 | 0.00 | 0.00 | 0.00 | 89 | 1012.7 |
| 20260506043337 | 40 | 312 | 0.0 | 2.0 | 0.00 | 0.00 | 0.00 | 91 | 1012.7 |
| 20260506042839 | 40 | 312 | 0.0 | 2.0 | 0.00 | 0.00 | 0.00 | 92 | 1012.7 |
| 20260506042337 | 39 | 313 | 0.0 | 2.0 | 0.00 | 0.00 | 0.00 | 93 | 1012.7 |
| 20260506041835 | 39 | 313 | 0.0 | 2.0 | 0.00 | 0.00 | 0.00 | 94 | 1012.6 |
| 20260506041334 | 38 | 312 | 0.0 | 2.0 | 0.00 | 0.00 | 0.00 | 95 | 1012.5 |
| 20260506040837 | 37 | 313 | 0.0 | 1.0 | 0.00 | 0.00 | 0.00 | 95 | 1012.6 |
| 20260506040333 | 36 | 313 | 0.0 | 1.0 | 0.00 | 0.00 | 0.00 | 96 | 1012.5 |
| 20260506035832 | 35 | 312 | 0.0 | 0.0 | 0.00 | 0.00 | 0.00 | 95 | 1012.6 |
| 20260506035333 | 35 | 312 | 0.0 | 0.0 | 0.00 | 0.00 | 0.00 | 95 | 1012.7 |
| 20260506035049 | 34 | 312 | 0.0 | 0.0 | 0.00 | 0.00 | 0.00 | 95 | 1012.5 |
| 20260506034554 | 34 | 312 | 0.0 | 0.0 | 0.00 | 0.00 | 0.00 | 95 | 1012.4 |
| 20260506034051 | 33 | 312 | 0.0 | 0.0 | 0.00 | 0.00 | 0.00 | 94 | 1012.4 |
| 20260506033321 | 34 | 312 | 0.0 | 0.0 | 0.00 | 0.00 | 0.00 | 95 | 1012.2 |
| 20260506032815 | 33 | 312 | 0.0 | 0.0 | 0.00 | 0.00 | 0.00 | 95 | 1012.1 |
| 20260506032310 | 33 | 312 | 0.0 | 0.0 | 0.00 | 0.00 | 0.00 | 95 | 1012.1 |
| 20260506031807 | 33 | 313 | 0.0 | 0.0 | 0.00 | 0.00 | 0.00 | 95 | 1012.1 |
| 20260506031308 | 31 | 313 | 0.0 | 0.0 | 0.00 | 0.00 | 0.00 | 94 | 1012.0 |
| 20260506030820 | 32 | 312 | 0.0 | 0.0 | 0.00 | 0.00 | 0.00 | 94 | 1012.0 |
| 20260506030309 | 32 | 313 | 0.0 | 0.0 | 0.00 | 0.00 | 0.00 | 94 | 1011.9 |
| 20260506025808 | 32 | 313 | 0.0 | 0.0 | 0.00 | 0.00 | 0.00 | 94 | 1012.0 |
| 20260506025532 | 31 | 312 | 0.0 | 0.0 | 0.00 | 0.00 | 0.00 | 94 | 1011.8 |
| 20260506024806 | 31 | 312 | 0.0 | 0.0 | 0.00 | 0.00 | 0.00 | 93 | 1011.8 |
| 20260506024303 | 31 | 312 | 0.0 | 0.0 | 0.00 | 0.00 | 0.00 | 93 | 1011.8 |
| 20260506023802 | 32 | 313 | 0.0 | 0.0 | 0.00 | 0.00 | 0.00 | 94 | 1011.6 |
| 20260506023259 | 31 | 312 | 0.0 | 0.0 | 0.00 | 0.00 | 0.00 | 94 | 1011.8 |
| 20260506023021 | 31 | 313 | 0.0 | 0.0 | 0.00 | 0.00 | 0.00 | 93 | 1011.7 |
| 20260506022519 | 32 | 313 | 0.0 | 0.0 | 0.00 | 0.00 | 0.00 | 93 | 1011.6 |
| 20260506021755 | 32 | 312 | 0.0 | 0.0 | 0.00 | 0.00 | 0.00 | 93 | 1011.6 |
| 20260506021739 | 33 | 313 | 0.0 | 0.0 | 0.00 | 0.00 | 0.00 | 93 | 1011.4 |
| 20260506020753 | 33 | 312 | 0.0 | 0.0 | 0.00 | 0.00 | 0.00 | 93 | 1011.5 |
| 20260506020253 | 33 | 313 | 0.0 | 1.0 | 0.00 | 0.00 | 0.00 | 93 | 1011.4 |
| 20260506015751 | 33 | 313 | 0.0 | 1.0 | 0.00 | 0.00 | 0.00 | 93 | 1011.4 |
| 20260506015511 | 33 | 313 | 0.0 | 0.0 | 0.00 | 0.00 | 0.00 | 92 | 1011.3 |
| 20260506014748 | 34 | 312 | 0.0 | 0.0 | 0.00 | 0.00 | 0.00 | 92 | 1011.4 |
| 20260506014249 | 33 | 312 | 0.0 | 0.0 | 0.00 | 0.00 | 0.00 | 92 | 1011.2 |
| 20260506013751 | 34 | 312 | 0.0 | 0.0 | 0.00 | 0.00 | 0.00 | 92 | 1011.4 |
| 20260506013249 | 33 | 312 | 0.0 | 0.0 | 0.00 | 0.00 | 0.00 | 92 | 1011.3 |
| 20260506012749 | 33 | 313 | 0.0 | 0.0 | 0.00 | 0.00 | 0.00 | 91 | 1011.5 |
| 20260506012248 | 34 | 313 | 0.0 | 0.0 | 0.00 | 0.00 | 0.00 | 91 | 1011.3 |
| 20260506012012 | 34 | 312 | 0.0 | 0.0 | 0.00 | 0.00 | 0.00 | 91 | 1011.4 |
| 20260506011247 | 35 | 313 | 0.0 | 0.0 | 0.00 | 0.00 | 0.00 | 90 | 1011.1 |
| 20260506011010 | 35 | 312 | 0.0 | 0.0 | 0.00 | 0.00 | 0.00 | 90 | 1011.1 |
| 20260506010512 | 35 | 313 | 0.0 | 0.0 | 0.00 | 0.00 | 0.00 | 90 | 1011.0 |
| 20260506005747 | 35 | 312 | 0.0 | 0.0 | 0.00 | 0.00 | 0.00 | 90 | 1011.0 |
| 20260506005249 | 35 | 312 | 0.0 | 0.0 | 0.00 | 0.00 | 0.00 | 90 | 1010.9 |
| 20260506004747 | 34 | 312 | 0.0 | 0.0 | 0.00 | 0.00 | 0.00 | 90 | 1010.9 |
| 20260506004513 | 33 | 313 | 0.0 | 0.0 | 0.00 | 0.00 | 0.00 | 89 | 1010.9 |
| 20260506003749 | 34 | 313 | 0.0 | 0.0 | 0.00 | 0.00 | 0.00 | 87 | 1010.8 |
| 20260506003246 | 36 | 312 | 0.0 | 0.0 | 0.00 | 0.00 | 0.00 | 87 | 1010.7 |
| 20260506002744 | 37 | 313 | 0.0 | 0.0 | 0.00 | 0.00 | 0.00 | 88 | 1010.6 |
| 20260506002242 | 37 | 312 | 0.0 | 0.0 | 0.00 | 0.00 | 0.00 | 89 | 1010.6 |
| 20260506002230 | 36 | 312 | 0.0 | 0.0 | 0.00 | 0.00 | 0.00 | 87 | 1010.7 |
| 20260506001241 | 36 | 312 | 0.0 | 0.0 | 0.00 | 0.00 | 0.00 | 87 | 1010.7 |
| 20260506000739 | 36 | 313 | 0.0 | 0.0 | 0.00 | 0.00 | 0.00 | 85 | 1010.7 |
| 20260506000240 | 37 | 313 | 0.0 | 0.0 | 0.00 | 0.00 | 0.00 | 85 | 1010.5 |
| 20260505235740 | 38 | 312 | 0.0 | 0.0 | 0.00 | 0.00 | 0.00 | 84 | 1010.5 |
| 20260505235232 | 38 | 312 | 0.0 | 0.0 | 0.00 | 0.00 | 0.00 | 84 | 1010.4 |
| 20260505234733 | 38 | 312 | 0.0 | 0.0 | 0.00 | 0.00 | 0.00 | 84 | 1010.6 |
| 20260505234230 | 38 | 313 | 0.0 | 0.0 | 0.00 | 0.00 | 0.00 | 83 | 1010.4 |
| 20260505233731 | 38 | 313 | 1.0 | 2.0 | 0.00 | 0.00 | 0.00 | 82 | 1010.5 |
| 20260505233226 | 38 | 313 | 1.0 | 2.0 | 0.00 | 0.00 | 0.00 | 82 | 1010.4 |
| 20260505232727 | 39 | 313 | 1.0 | 2.0 | 0.00 | 0.00 | 0.00 | 82 | 1010.5 |
| 20260505232228 | 39 | 312 | 1.0 | 3.0 | 0.00 | 0.00 | 0.00 | 80 | 1010.4 |
| 20260505231728 | 39 | 312 | 1.0 | 3.0 | 0.00 | 0.00 | 0.00 | 81 | 1010.4 |
| 20260505231227 | 39 | 312 | 2.0 | 3.0 | 0.00 | 0.00 | 0.00 | 80 | 1010.4 |
| 20260505230727 | 39 | 312 | 2.0 | 3.0 | 0.00 | 0.00 | 0.00 | 80 | 1010.4 |
| 20260505230236 | 39 | 312 | 2.0 | 3.0 | 0.00 | 0.00 | 0.00 | 79 | 1010.5 |
| 20260505225723 | 40 | 312 | 3.0 | 4.0 | 0.00 | 0.00 | 0.00 | 79 | 1010.5 |
| 20260505225224 | 40 | 312 | 3.0 | 4.0 | 0.00 | 0.00 | 0.00 | 78 | 1010.5 |
| 20260505224723 | 40 | 312 | 2.0 | 4.0 | 0.00 | 0.00 | 0.00 | 78 | 1010.4 |
| 20260505224223 | 40 | 311 | 2.0 | 3.0 | 0.00 | 0.00 | 0.00 | 77 | 1010.3 |
| 20260505223722 | 40 | 311 | 2.0 | 3.0 | 0.00 | 0.00 | 0.00 | 77 | 1010.5 |
| 20260505223222 | 40 | 311 | 2.0 | 3.0 | 0.00 | 0.00 | 0.00 | 76 | 1010.4 |
| 20260505222720 | 40 | 311 | 2.0 | 4.0 | 0.00 | 0.00 | 0.00 | 76 | 1010.4 |
| 20260505222221 | 40 | 313 | 2.0 | 4.0 | 0.00 | 0.00 | 0.00 | 76 | 1010.2 |
| 20260505221720 | 41 | 310 | 3.0 | 8.0 | 0.00 | 0.00 | 0.00 | 76 | 1010.3 |
| 20260505221221 | 41 | 321 | 4.0 | 8.0 | 0.00 | 0.00 | 0.00 | 76 | 1010.2 |
| 20260505220718 | 41 | 325 | 3.0 | 7.0 | 0.00 | 0.00 | 0.00 | 76 | 1010.3 |
| 20260505220219 | 41 | 319 | 4.0 | 7.0 | 0.00 | 0.00 | 0.00 | 76 | 1010.3 |
| 20260505215721 | 42 | 296 | 3.0 | 5.0 | 0.00 | 0.00 | 0.00 | 76 | 1010.2 |
| 20260505215220 | 42 | 289 | 3.0 | 5.0 | 0.00 | 0.00 | 0.00 | 76 | 1010.3 |
| 20260505214719 | 42 | 302 | 3.0 | 5.0 | 0.00 | 0.00 | 0.00 | 76 | 1010.4 |
| 20260505214220 | 42 | 298 | 3.0 | 5.0 | 0.00 | 0.00 | 0.00 | 76 | 1010.3 |
| 20260505213732 | 42 | 300 | 2.0 | 5.0 | 0.00 | 0.00 | 0.00 | 75 | 1010.4 |
| 20260505213218 | 42 | 300 | 2.0 | 4.0 | 0.00 | 0.00 | 0.00 | 74 | 1010.2 |
| 20260505212719 | 42 | 300 | 2.0 | 4.0 | 0.00 | 0.00 | 0.00 | 73 | 1010.0 |
| 20260505212217 | 42 | 300 | 2.0 | 4.0 | 0.00 | 0.00 | 0.00 | 73 | 1010.1 |
| 20260505211718 | 42 | 300 | 1.0 | 3.0 | 0.00 | 0.00 | 0.00 | 72 | 1010.1 |
| 20260505211216 | 42 | 300 | 1.0 | 3.0 | 0.00 | 0.00 | 0.00 | 71 | 1010.1 |
| 20260505210716 | 43 | 300 | 0.0 | 3.0 | 0.00 | 0.00 | 0.00 | 72 | 1009.9 |
| 20260505210216 | 42 | 300 | 0.0 | 0.0 | 0.00 | 0.00 | 0.00 | 72 | 1010.0 |
| 20260505205940 | 42 | 300 | 0.0 | 0.0 | 0.00 | 0.00 | 0.00 | 71 | 1009.9 |
| 20260505205213 | 42 | 300 | 0.0 | 0.0 | 0.00 | 0.00 | 0.00 | 70 | 1009.8 |
| 20260505204712 | 42 | 300 | 0.0 | 2.0 | 0.00 | 0.00 | 0.00 | 70 | 1009.8 |
| 20260505204213 | 42 | 300 | 0.0 | 2.0 | 0.00 | 0.00 | 0.00 | 71 | 1009.8 |
| 20260505203714 | 42 | 300 | 1.0 | 2.0 | 0.00 | 0.00 | 0.00 | 70 | 1009.6 |
| 20260505203212 | 42 | 300 | 1.0 | 2.0 | 0.00 | 0.00 | 0.00 | 69 | 1009.6 |
| 20260505202713 | 43 | 300 | 2.0 | 3.0 | 0.00 | 0.00 | 0.00 | 68 | 1009.6 |
| 20260505202213 | 43 | 300 | 2.0 | 4.0 | 0.00 | 0.00 | 0.00 | 68 | 1009.5 |
| 20260505201713 | 43 | 300 | 3.0 | 4.0 | 0.00 | 0.00 | 0.00 | 67 | 1009.3 |
| 20260505201211 | 43 | 300 | 3.0 | 4.0 | 0.00 | 0.00 | 0.00 | 67 | 1009.3 |
| 20260505200711 | 44 | 307 | 2.0 | 3.0 | 0.00 | 0.00 | 0.00 | 66 | 1009.1 |
| 20260505200212 | 44 | 307 | 2.0 | 3.0 | 0.00 | 0.00 | 0.00 | 66 | 1009.1 |
| 20260505195929 | 44 | 307 | 1.0 | 3.0 | 0.00 | 0.00 | 0.00 | 65 | 1009.1 |
| 20260505195212 | 44 | 307 | 2.0 | 4.0 | 0.00 | 0.00 | 0.00 | 67 | 1009.1 |
| 20260505194711 | 44 | 307 | 3.0 | 5.0 | 0.00 | 0.00 | 0.00 | 67 | 1009.0 |
| 20260505194211 | 44 | 307 | 3.0 | 5.0 | 0.00 | 0.00 | 0.00 | 66 | 1009.1 |
| 20260505193710 | 44 | 307 | 3.0 | 7.0 | 0.00 | 0.00 | 0.00 | 65 | 1009.1 |
| 20260505193649 | 44 | 304 | 3.0 | 7.0 | 0.00 | 0.00 | 0.00 | 65 | 1009.0 |
| 20260505192708 | 44 | 306 | 3.0 | 5.0 | 0.00 | 0.00 | 0.00 | 65 | 1009.1 |
| 20260505192209 | 45 | 306 | 2.0 | 4.0 | 0.00 | 0.00 | 0.00 | 66 | 1009.1 |
| 20260505191708 | 45 | 306 | 2.0 | 4.0 | 0.00 | 0.00 | 0.00 | 64 | 1009.0 |
| 20260505191645 | 45 | 306 | 2.0 | 3.0 | 0.00 | 0.00 | 0.00 | 65 | 1008.9 |
| 20260505190707 | 45 | 306 | 2.0 | 4.0 | 0.00 | 0.00 | 0.00 | 65 | 1009.1 |
| 20260505190218 | 45 | 306 | 3.0 | 7.0 | 0.00 | 0.00 | 0.00 | 65 | 1009.1 |
| 20260505185703 | 46 | 304 | 3.0 | 7.0 | 0.00 | 0.00 | 0.00 | 64 | 1009.1 |
| 20260505185204 | 46 | 309 | 4.0 | 5.0 | 0.00 | 0.00 | 0.00 | 63 | 1009.1 |
| 20260505184920 | 46 | 306 | 4.0 | 8.0 | 0.00 | 0.00 | 0.00 | 63 | 1009.0 |
| 20260505184201 | 47 | 306 | 6.0 | 11.0 | 0.00 | 0.00 | 0.00 | 62 | 1009.1 |
| 20260505184146 | 47 | 321 | 6.0 | 11.0 | 0.00 | 0.00 | 0.00 | 62 | 1008.9 |
| 20260505183201 | 47 | 305 | 5.0 | 10.0 | 0.00 | 0.00 | 0.00 | 61 | 1009.1 |
| 20260505182925 | 47 | 298 | 7.0 | 12.0 | 0.00 | 0.00 | 0.00 | 61 | 1008.9 |
| 20260505182152 | 47 | 337 | 6.0 | 12.0 | 0.00 | 0.00 | 0.00 | 61 | 1008.9 |
| 20260505181646 | 48 | 304 | 7.0 | 12.0 | 0.00 | 0.00 | 0.00 | 61 | 1008.9 |
| 20260505181142 | 48 | 274 | 8.0 | 13.0 | 0.00 | 0.00 | 0.00 | 60 | 1008.8 |
| 20260505180635 | 48 | 317 | 9.0 | 17.0 | 0.00 | 0.00 | 0.00 | 59 | 1008.7 |
| 20260505180129 | 49 | 331 | 10.0 | 17.0 | 0.00 | 0.00 | 0.00 | 58 | 1008.6 |
| 20260505175622 | 49 | 311 | 10.0 | 19.0 | 0.00 | 0.00 | 0.00 | 59 | 1008.5 |
| 20260505175118 | 49 | 317 | 10.0 | 19.0 | 0.00 | 0.00 | 0.00 | 58 | 1008.6 |
| 20260505174611 | 49 | 315 | 9.0 | 15.0 | 0.00 | 0.00 | 0.00 | 59 | 1008.5 |
| 20260505174105 | 49 | 328 | 9.0 | 16.0 | 0.00 | 0.00 | 0.00 | 60 | 1008.5 |
| 20260505173600 | 50 | 313 | 10.0 | 16.0 | 0.00 | 0.00 | 0.00 | 60 | 1008.5 |
| 20260505173314 | 50 | 319 | 11.0 | 18.0 | 0.00 | 0.00 | 0.00 | 60 | 1008.2 |
| 20260505172546 | 50 | 313 | 12.0 | 20.0 | 0.00 | 0.00 | 0.00 | 61 | 1008.3 |
| 20260505172040 | 50 | 350 | 12.0 | 20.0 | 0.00 | 0.00 | 0.00 | 61 | 1008.3 |
| 20260505171535 | 50 | 318 | 12.0 | 17.0 | 0.00 | 0.00 | 0.00 | 61 | 1008.3 |
| 20260505171030 | 50 | 311 | 10.0 | 17.0 | 0.00 | 0.00 | 0.00 | 63 | 1008.3 |
| 20260505170525 | 50 | 292 | 8.0 | 14.0 | 0.00 | 0.00 | 0.00 | 64 | 1008.4 |
| 20260505170017 | 51 | 290 | 9.0 | 14.0 | 0.00 | 0.00 | 0.00 | 64 | 1008.3 |
| 20260505165510 | 51 | 301 | 9.0 | 14.0 | 0.00 | 0.00 | 0.00 | 64 | 1008.3 |
| 20260505165004 | 51 | 311 | 9.0 | 14.0 | 0.00 | 0.00 | 0.00 | 65 | 1008.3 |
| 20260505164724 | 51 | 309 | 9.0 | 15.0 | 0.00 | 0.00 | 0.00 | 65 | 1008.3 |
| 20260505163953 | 51 | 329 | 9.0 | 15.0 | 0.00 | 0.00 | 0.00 | 65 | 1008.1 |
| 20260505163448 | 51 | 306 | 9.0 | 16.0 | 0.00 | 0.00 | 0.00 | 66 | 1008.1 |